createdAt,value
2023-05-10T00:03:01.929Z,13
2023-05-10T00:11:17.362Z,13.1
2023-05-10T00:19:32.786Z,13
2023-05-10T00:27:48.233Z,12.9
2023-05-10T00:36:03.700Z,12.8
2023-05-10T00:44:19.105Z,12.8
2023-05-10T00:52:34.526Z,12.7
2023-05-10T01:00:49.957Z,12.7
2023-05-10T01:09:05.374Z,12.7
2023-05-10T01:17:20.816Z,12.6
2023-05-10T01:25:36.225Z,12.6
2023-05-10T01:33:51.634Z,12.5
2023-05-10T01:42:07.058Z,12.5
2023-05-10T01:50:22.495Z,12.5
2023-05-10T01:58:37.887Z,12.3
2023-05-10T02:06:53.268Z,12.3
2023-05-10T02:15:08.706Z,12.3
2023-05-10T02:23:24.079Z,12.4
2023-05-10T02:31:39.469Z,12.5
2023-05-10T02:39:54.876Z,12.4
2023-05-10T02:48:10.279Z,12.5
2023-05-10T02:56:25.647Z,12.3
2023-05-10T03:04:41.047Z,12.2
2023-05-10T03:12:56.433Z,11.9
2023-05-10T03:21:11.817Z,11.5
2023-05-10T03:29:27.232Z,11.5
2023-05-10T03:37:42.640Z,11.6
2023-05-10T03:45:57.956Z,11.7
2023-05-10T03:54:13.318Z,11.7
2023-05-10T04:02:28.667Z,11.4
2023-05-10T04:10:44.037Z,11.2
2023-05-10T04:18:59.393Z,11.1
2023-05-10T04:27:14.758Z,11.1
2023-05-10T04:35:30.121Z,11.2
2023-05-10T04:43:45.477Z,11.3
2023-05-10T04:52:00.839Z,11.5
2023-05-10T05:00:16.197Z,11.6
2023-05-10T05:08:31.628Z,11.8
2023-05-10T05:16:46.941Z,11.9
2023-05-10T05:25:02.319Z,11.9
2023-05-10T05:33:17.727Z,12
2023-05-10T05:41:33.077Z,12.1
2023-05-10T05:49:48.494Z,12.2
2023-05-10T05:58:03.908Z,12.4
2023-05-10T06:06:19.424Z,12.6
2023-05-10T06:14:34.731Z,12.7
2023-05-10T06:22:50.229Z,13.1
2023-05-10T06:31:05.622Z,13.5
2023-05-10T06:39:21.123Z,14.2
2023-05-10T06:47:36.643Z,15.3
2023-05-10T06:55:52.452Z,17.4
2023-05-10T07:04:08.094Z,18
2023-05-10T07:12:23.773Z,16.1
2023-05-10T07:20:39.695Z,16.1
2023-05-10T07:28:55.155Z,16
2023-05-10T07:37:10.821Z,15.5
2023-05-10T07:45:26.489Z,16
2023-05-10T07:53:42.173Z,15.3
2023-05-10T08:01:57.755Z,15.3
2023-05-10T08:10:13.460Z,15.4
2023-05-10T08:18:29.013Z,14.8
2023-05-10T08:26:44.610Z,14.6
2023-05-10T08:35:00.332Z,15.7
2023-05-10T08:43:15.930Z,15.1
2023-05-10T08:51:31.619Z,15.6
2023-05-10T08:59:47.337Z,17.9
2023-05-10T09:08:03.151Z,17.5
2023-05-10T09:16:19.024Z,18.8
2023-05-10T09:24:35.076Z,18.5
2023-05-10T09:32:50.978Z,17.6
2023-05-10T09:41:06.843Z,16.8
2023-05-10T09:49:22.677Z,16
2023-05-10T09:57:38.408Z,15.3
2023-05-10T10:05:54.030Z,15.1
2023-05-10T10:14:09.729Z,15.6
2023-05-10T10:22:25.545Z,16
2023-05-10T10:30:41.630Z,17.4
2023-05-10T10:38:57.989Z,17.5
2023-05-10T10:47:14.137Z,17.3
2023-05-10T10:55:30.154Z,17.2
2023-05-10T11:03:45.850Z,16.7
2023-05-10T11:12:01.509Z,16.6
2023-05-10T11:20:17.213Z,16.8
2023-05-10T11:28:32.891Z,16.3
2023-05-10T11:36:48.518Z,16
2023-05-10T11:45:04.137Z,15.8
2023-05-10T11:53:19.714Z,15.7
2023-05-10T12:01:35.331Z,15.6
2023-05-10T12:09:50.820Z,15.4
2023-05-10T12:18:06.372Z,15.6
2023-05-10T12:26:21.920Z,15.8
2023-05-10T12:34:37.452Z,15.5
2023-05-10T12:42:53.008Z,15.4
2023-05-10T12:51:08.604Z,15.7
2023-05-10T12:59:24.147Z,15.9
2023-05-10T13:07:39.739Z,15.8
2023-05-10T13:15:55.324Z,15.8
2023-05-10T13:24:10.911Z,15.8
2023-05-10T13:32:26.477Z,15.5
2023-05-10T13:40:42.212Z,15.5
2023-05-10T13:48:57.773Z,15.5
2023-05-10T13:57:13.287Z,15.6
2023-05-10T14:05:28.734Z,15.5
2023-05-10T14:13:44.286Z,15.6
2023-05-10T14:21:59.866Z,15.4
2023-05-10T14:30:15.481Z,15.5
2023-05-10T14:38:31.174Z,15.2
2023-05-10T14:46:46.661Z,15.2
2023-05-10T14:55:02.175Z,15.3
2023-05-10T15:03:17.747Z,14.8
2023-05-10T15:11:33.305Z,14.8
2023-05-10T15:19:49.086Z,15.1
2023-05-10T15:28:04.408Z,14.7
2023-05-10T15:36:20.131Z,14.8
2023-05-10T15:44:35.477Z,15.1
2023-05-10T15:52:50.996Z,15
2023-05-10T16:01:06.671Z,15
2023-05-10T16:09:22.060Z,14.7
2023-05-10T16:25:51.046Z,14.6
2023-05-10T16:34:08.626Z,14.6
2023-05-10T16:42:24.045Z,14.6
2023-05-10T16:50:39.586Z,14.6
2023-05-10T16:58:55.017Z,14.7
2023-05-10T17:07:10.526Z,14.3
2023-05-10T17:15:25.977Z,14.1
2023-05-10T17:23:41.541Z,14.3
2023-05-10T17:31:56.925Z,14
2023-05-10T17:40:12.403Z,14
2023-05-10T17:48:27.872Z,14.1
2023-05-10T17:56:43.404Z,13.8
2023-05-10T18:04:58.765Z,13.6
2023-05-10T18:13:14.215Z,13.3
2023-05-10T18:21:29.809Z,13
2023-05-10T18:29:45.122Z,13
2023-05-10T18:38:00.453Z,12.9
2023-05-10T18:46:16.077Z,12.8
2023-05-10T18:54:31.276Z,12.7
2023-05-10T19:02:46.606Z,12.6
2023-05-10T19:11:02.016Z,12.4
2023-05-10T19:19:17.664Z,12.3
2023-05-10T19:27:32.786Z,12.4
2023-05-10T19:35:48.080Z,12.2
2023-05-10T19:44:03.533Z,12
2023-05-10T19:52:18.823Z,11.8
2023-05-10T20:00:34.131Z,11.7
2023-05-10T20:08:49.489Z,11.6
2023-05-10T20:17:04.833Z,11.5
2023-05-10T20:25:20.217Z,11.4
2023-05-10T20:33:35.555Z,11.5
2023-05-10T20:41:50.931Z,11.6
2023-05-10T20:50:06.326Z,11.7
2023-05-10T20:58:21.612Z,11.7
2023-05-10T21:06:37.326Z,11.5
2023-05-10T21:14:52.326Z,11.6
2023-05-10T21:23:07.685Z,11.6
2023-05-10T21:31:23.033Z,11.6
2023-05-10T21:39:38.429Z,11.5
2023-05-10T21:47:53.750Z,11.4
2023-05-10T21:56:09.114Z,11.2
2023-05-10T22:04:24.412Z,11.2
2023-05-10T22:12:39.790Z,11.2
2023-05-10T22:20:55.082Z,11.2
2023-05-10T22:29:10.408Z,11.3
2023-05-10T22:37:25.729Z,11.4
2023-05-10T22:45:41.065Z,11.4
2023-05-10T22:53:56.408Z,11.5
2023-05-10T23:02:11.809Z,11.5
2023-05-10T23:10:27.079Z,11.6
2023-05-10T23:18:42.418Z,11.6
2023-05-10T23:26:57.764Z,11.6
2023-05-10T23:35:13.111Z,11.6
2023-05-10T23:43:28.417Z,11.7
2023-05-10T23:51:43.761Z,11.6
2023-05-10T23:59:59.099Z,11.6
